createdAt,value
2019-06-20T00:00:29.485Z,20.00
2019-06-20T00:02:55.746Z,19.85
2019-06-20T00:05:22.781Z,19.84
2019-06-20T00:07:49.118Z,19.82
2019-06-20T00:10:15.425Z,19.78
2019-06-20T00:12:41.517Z,20.13
2019-06-20T00:15:07.907Z,20.15
2019-06-20T00:17:33.971Z,20.17
2019-06-20T00:20:00.052Z,20.17
2019-06-20T00:22:26.344Z,20.25
2019-06-20T00:24:52.535Z,20.37
2019-06-20T00:27:18.760Z,20.38
2019-06-20T00:29:44.962Z,20.46
2019-06-20T00:32:11.158Z,20.50
2019-06-20T00:34:37.254Z,20.45
2019-06-20T00:37:03.431Z,20.41
2019-06-20T00:39:29.526Z,20.29
2019-06-20T00:41:55.592Z,20.25
2019-06-20T00:44:21.823Z,20.43
2019-06-20T00:46:47.996Z,20.39
2019-06-20T00:49:15.290Z,20.43
2019-06-20T00:51:41.625Z,20.49
2019-06-20T00:54:07.776Z,20.48
2019-06-20T00:56:34.042Z,20.39
2019-06-20T00:59:00.261Z,20.07
2019-06-20T01:01:26.738Z,19.97
2019-06-20T01:03:54.168Z,19.85
2019-06-20T01:06:20.319Z,19.63
2019-06-20T01:08:46.377Z,19.76
2019-06-20T01:11:12.501Z,19.61
2019-06-20T01:13:38.697Z,19.61
2019-06-20T01:16:04.925Z,19.75
2019-06-20T01:18:31.012Z,19.79
2019-06-20T01:21:00.552Z,19.87
2019-06-20T01:23:26.781Z,19.96
2019-06-20T01:25:52.973Z,20.01
2019-06-20T01:28:19.057Z,19.99
2019-06-20T01:30:45.699Z,19.94
2019-06-20T01:33:11.768Z,19.78
2019-06-20T01:35:38.249Z,19.51
2019-06-20T01:38:04.664Z,19.27
2019-06-20T01:40:30.839Z,19.33
2019-06-20T01:42:57.195Z,19.57
2019-06-20T01:45:23.954Z,19.73
2019-06-20T01:47:50.521Z,19.80
2019-06-20T01:50:16.957Z,19.79
2019-06-20T01:52:43.216Z,19.73
2019-06-20T01:55:09.526Z,19.22
2019-06-20T01:57:35.601Z,19.03
2019-06-20T02:00:03.933Z,19.16
2019-06-20T02:02:30.580Z,19.23
2019-06-20T02:04:57.079Z,19.02
2019-06-20T02:07:23.344Z,18.64
2019-06-20T02:09:49.413Z,18.28
2019-06-20T02:12:15.634Z,18.35
2019-06-20T02:14:44.491Z,18.63
2019-06-20T02:17:10.962Z,18.93
2019-06-20T02:19:37.285Z,19.16
2019-06-20T02:22:03.568Z,19.41
2019-06-20T02:24:29.846Z,19.52
2019-06-20T02:26:55.942Z,19.01
2019-06-20T02:29:22.696Z,18.82
2019-06-20T02:31:48.792Z,18.40
2019-06-20T02:34:14.856Z,18.50
2019-06-20T02:36:41.061Z,18.86
2019-06-20T02:39:07.504Z,19.08
2019-06-20T02:41:34.495Z,19.21
2019-06-20T02:44:01.674Z,19.17
2019-06-20T02:46:28.386Z,19.12
2019-06-20T02:48:54.519Z,19.10
2019-06-20T02:51:23.775Z,19.16
2019-06-20T02:53:50.821Z,19.37
2019-06-20T02:56:16.995Z,19.55
2019-06-20T02:58:43.075Z,19.70
2019-06-20T03:01:09.583Z,19.84
2019-06-20T03:03:35.708Z,19.97
2019-06-20T03:06:02.059Z,19.97
2019-06-20T03:08:28.635Z,19.99
2019-06-20T03:10:54.890Z,19.94
2019-06-20T03:13:21.000Z,19.78
2019-06-20T03:15:50.003Z,19.78
2019-06-20T03:18:18.044Z,19.79
2019-06-20T03:20:44.086Z,19.72
2019-06-20T03:23:10.298Z,19.73
2019-06-20T03:25:36.493Z,19.70
2019-06-20T03:28:02.961Z,19.57
2019-06-20T03:30:29.420Z,19.42
2019-06-20T03:32:55.604Z,19.13
2019-06-20T03:35:21.669Z,18.91
2019-06-20T03:37:50.220Z,18.47
2019-06-20T03:40:16.338Z,18.55
2019-06-20T03:42:43.059Z,18.47
2019-06-20T03:45:09.856Z,18.55
2019-06-20T03:47:36.109Z,18.68
2019-06-20T03:50:05.437Z,18.68
2019-06-20T03:52:31.633Z,18.62
2019-06-20T03:54:57.685Z,18.55
2019-06-20T03:57:23.909Z,18.52
2019-06-20T03:59:49.996Z,18.72
2019-06-20T04:02:16.148Z,18.98
2019-06-20T04:04:42.278Z,19.23
2019-06-20T04:07:09.085Z,19.46
2019-06-20T04:09:35.319Z,19.60
2019-06-20T04:12:01.491Z,19.69
2019-06-20T04:14:27.780Z,19.68
2019-06-20T04:16:54.202Z,19.44
2019-06-20T04:19:20.332Z,19.24
2019-06-20T04:21:46.443Z,19.25
2019-06-20T04:24:12.596Z,19.33
2019-06-20T04:26:38.991Z,19.37
2019-06-20T04:29:05.180Z,19.28
2019-06-20T04:31:31.271Z,19.31
2019-06-20T04:33:57.334Z,19.47
2019-06-20T04:36:23.510Z,19.71
2019-06-20T04:38:49.683Z,19.77
2019-06-20T04:41:15.731Z,19.79
2019-06-20T04:43:41.899Z,19.77
2019-06-20T04:46:08.108Z,19.92
2019-06-20T04:48:34.299Z,20.21
2019-06-20T04:51:00.361Z,20.48
2019-06-20T04:53:26.672Z,20.64
2019-06-20T04:55:52.818Z,20.86
2019-06-20T04:58:18.874Z,21.18
2019-06-20T05:00:45.101Z,21.33
2019-06-20T05:03:11.279Z,21.34
2019-06-20T05:05:37.571Z,21.27
2019-06-20T05:08:03.645Z,21.49
2019-06-20T05:10:29.910Z,21.79
2019-06-20T05:12:56.248Z,22.49
2019-06-20T05:15:22.557Z,23.60
2019-06-20T05:17:48.695Z,24.25
2019-06-20T05:20:16.970Z,24.76
2019-06-20T05:22:43.062Z,24.86
2019-06-20T05:25:09.499Z,24.84
2019-06-20T05:27:35.858Z,25.32
2019-06-20T05:30:07.859Z,25.25
2019-06-20T05:32:34.095Z,25.11
2019-06-20T05:35:02.958Z,25.14
2019-06-20T05:37:28.410Z,24.48
2019-06-20T05:39:54.633Z,23.97
2019-06-20T05:42:20.691Z,23.44
2019-06-20T05:44:46.802Z,23.10
2019-06-20T05:47:14.110Z,22.92
2019-06-20T05:49:40.593Z,22.76
2019-06-20T05:52:06.737Z,22.55
2019-06-20T05:54:32.866Z,22.51
2019-06-20T05:56:59.027Z,22.32
2019-06-20T05:59:25.765Z,22.12
2019-06-20T06:01:56.077Z,22.08
2019-06-20T06:04:20.607Z,23.00
2019-06-20T06:06:47.572Z,24.90
2019-06-20T06:09:14.022Z,26.46
2019-06-20T06:11:41.377Z,27.65
2019-06-20T06:14:07.599Z,28.27
2019-06-20T06:16:33.824Z,28.89
2019-06-20T06:18:59.930Z,29.54
2019-06-20T06:21:26.297Z,29.91
2019-06-20T06:23:55.209Z,29.59
2019-06-20T06:26:24.397Z,28.80
2019-06-20T06:28:52.370Z,28.08
2019-06-20T06:31:18.492Z,27.12
2019-06-20T06:33:44.611Z,26.56
2019-06-20T06:36:11.799Z,27.37
2019-06-20T06:38:38.211Z,28.45
2019-06-20T06:41:04.443Z,29.13
2019-06-20T06:43:30.503Z,29.67
2019-06-20T06:45:56.757Z,29.51
2019-06-20T06:48:22.784Z,29.51
2019-06-20T06:50:48.971Z,29.46
2019-06-20T06:53:15.039Z,29.20
2019-06-20T06:55:41.095Z,28.74
2019-06-20T06:58:07.207Z,28.95
2019-06-20T07:00:34.430Z,28.97
2019-06-20T07:03:00.638Z,29.19
2019-06-20T07:05:26.954Z,29.52
2019-06-20T07:07:53.073Z,29.27
2019-06-20T07:10:19.445Z,29.42
2019-06-20T07:12:45.662Z,29.24
2019-06-20T07:15:14.184Z,29.25
2019-06-20T07:17:40.740Z,29.12
2019-06-20T07:20:08.603Z,29.11
2019-06-20T07:22:35.183Z,28.96
2019-06-20T07:25:01.883Z,28.63
2019-06-20T07:27:28.215Z,27.91
2019-06-20T07:29:54.324Z,27.57
2019-06-20T07:32:20.583Z,27.42
2019-06-20T07:34:47.644Z,27.59
2019-06-20T07:37:14.744Z,27.80
2019-06-20T07:39:40.926Z,27.97
2019-06-20T07:42:06.988Z,27.75
2019-06-20T07:44:33.134Z,27.68
2019-06-20T07:46:59.229Z,27.56
2019-06-20T07:49:25.322Z,27.25
2019-06-20T07:51:51.720Z,26.90
2019-06-20T07:54:17.940Z,26.79
2019-06-20T07:56:43.987Z,26.68
2019-06-20T07:59:10.795Z,26.32
2019-06-20T08:01:37.048Z,25.91
2019-06-20T08:04:03.433Z,25.72
2019-06-20T08:06:29.739Z,25.53
2019-06-20T08:08:55.836Z,25.33
2019-06-20T08:11:22.024Z,25.14
2019-06-20T08:13:48.186Z,25.01
2019-06-20T08:16:14.238Z,25.18
2019-06-20T08:18:40.564Z,25.52
2019-06-20T08:21:06.635Z,25.70
2019-06-20T08:23:32.713Z,25.93
2019-06-20T08:26:00.519Z,26.14
2019-06-20T08:28:27.735Z,26.23
2019-06-20T08:30:54.061Z,26.29
2019-06-20T08:33:20.227Z,26.19
2019-06-20T08:35:46.503Z,26.35
2019-06-20T08:38:12.557Z,26.46
2019-06-20T08:40:38.875Z,26.07
2019-06-20T08:43:06.339Z,25.80
2019-06-20T08:45:34.703Z,25.81
2019-06-20T08:48:02.410Z,25.71
2019-06-20T08:50:30.103Z,25.90
2019-06-20T08:52:58.006Z,26.16
2019-06-20T08:55:24.649Z,26.45
2019-06-20T08:57:50.837Z,26.98
2019-06-20T09:00:19.404Z,27.30
2019-06-20T09:02:45.669Z,27.00
2019-06-20T09:05:12.663Z,27.04
2019-06-20T09:07:41.715Z,27.34
2019-06-20T09:10:08.126Z,27.24
2019-06-20T09:12:34.496Z,27.27
2019-06-20T09:15:01.251Z,27.17
2019-06-20T09:17:27.642Z,27.27
2019-06-20T09:19:54.413Z,27.55
2019-06-20T09:22:20.532Z,27.70
2019-06-20T09:24:47.700Z,27.42
2019-06-20T09:27:13.801Z,27.17
2019-06-20T09:29:42.041Z,27.05
2019-06-20T09:32:08.467Z,27.11
2019-06-20T09:34:34.691Z,27.29
2019-06-20T09:37:00.852Z,27.38
2019-06-20T09:39:27.044Z,27.33
2019-06-20T09:41:54.363Z,27.54
2019-06-20T09:44:21.012Z,27.33
2019-06-20T09:46:47.115Z,28.04
2019-06-20T09:49:13.275Z,28.34
2019-06-20T09:51:39.323Z,28.18
2019-06-20T09:54:05.640Z,28.07
2019-06-20T09:56:31.897Z,28.15
2019-06-20T09:58:58.324Z,28.11
2019-06-20T10:01:24.666Z,27.58
2019-06-20T10:03:50.702Z,27.23
2019-06-20T10:06:16.935Z,26.81
2019-06-20T10:08:43.077Z,26.47
2019-06-20T10:11:09.464Z,26.24
2019-06-20T10:13:36.864Z,26.04
2019-06-20T10:16:03.255Z,26.00
2019-06-20T10:18:29.450Z,26.32
2019-06-20T10:20:55.678Z,26.54
2019-06-20T10:23:21.943Z,26.69
2019-06-20T10:25:49.217Z,25.84
2019-06-20T10:28:17.425Z,26.78
2019-06-20T10:30:44.795Z,26.86
2019-06-20T10:33:11.085Z,27.03
2019-06-20T10:35:37.273Z,27.01
2019-06-20T10:38:03.537Z,27.06
2019-06-20T10:40:30.040Z,26.96
2019-06-20T10:42:56.896Z,27.11
2019-06-20T10:45:25.564Z,26.95
2019-06-20T10:47:52.908Z,26.93
2019-06-20T10:50:19.638Z,26.89
2019-06-20T10:52:45.878Z,26.94
2019-06-20T10:55:12.835Z,26.91
2019-06-20T10:57:41.259Z,27.08
2019-06-20T11:00:08.352Z,27.29
2019-06-20T11:02:34.395Z,27.34
2019-06-20T11:05:00.500Z,27.37
2019-06-20T11:07:26.752Z,27.59
2019-06-20T11:09:52.883Z,27.84
2019-06-20T11:12:19.198Z,27.82
2019-06-20T11:14:46.215Z,27.96
2019-06-20T11:17:13.662Z,27.99
2019-06-20T11:19:41.684Z,28.05
2019-06-20T11:22:07.778Z,28.23
2019-06-20T11:24:34.015Z,28.46
2019-06-20T11:27:00.064Z,28.43
2019-06-20T11:29:26.186Z,28.32
2019-06-20T11:31:52.314Z,28.04
2019-06-20T11:34:18.372Z,27.88
2019-06-20T11:36:45.118Z,27.73
2019-06-20T11:39:11.475Z,27.50
2019-06-20T11:41:38.109Z,27.40
2019-06-20T11:44:05.509Z,27.35
2019-06-20T11:46:31.673Z,27.34
2019-06-20T11:48:57.759Z,27.46
2019-06-20T11:51:23.814Z,27.58
2019-06-20T11:53:49.913Z,27.41
2019-06-20T11:56:15.972Z,27.41
2019-06-20T11:58:42.479Z,27.23
2019-06-20T12:01:08.510Z,27.21
2019-06-20T12:03:34.642Z,27.34
2019-06-20T12:06:00.741Z,27.61
2019-06-20T12:08:26.830Z,28.08
2019-06-20T12:10:52.884Z,28.52
2019-06-20T12:13:19.063Z,28.75
2019-06-20T12:15:46.577Z,28.93
2019-06-20T12:18:12.863Z,29.15
2019-06-20T12:20:39.643Z,29.27
2019-06-20T12:23:07.059Z,29.23
2019-06-20T12:25:33.230Z,29.44
2019-06-20T12:27:59.365Z,29.35
2019-06-20T12:30:25.687Z,28.98
2019-06-20T12:32:51.966Z,29.02
2019-06-20T12:35:18.354Z,28.76
2019-06-20T12:37:45.195Z,28.53
2019-06-20T12:40:14.160Z,28.48
2019-06-20T12:42:41.778Z,28.54
2019-06-20T12:45:08.524Z,28.97
2019-06-20T12:47:38.238Z,28.91
2019-06-20T12:50:07.595Z,28.75
2019-06-20T12:52:33.815Z,28.82
2019-06-20T12:54:59.912Z,28.74
2019-06-20T12:57:25.976Z,28.78
2019-06-20T12:59:52.080Z,28.76
2019-06-20T13:02:18.239Z,28.42
2019-06-20T13:04:45.985Z,28.46
2019-06-20T13:07:12.443Z,28.75
2019-06-20T13:09:39.440Z,29.00
2019-06-20T13:12:06.660Z,29.31
2019-06-20T13:14:32.895Z,29.59
2019-06-20T13:16:58.945Z,29.56
2019-06-20T13:19:25.497Z,29.54
2019-06-20T13:21:51.677Z,29.31
2019-06-20T13:24:18.924Z,29.32
2019-06-20T13:26:45.118Z,29.09
2019-06-20T13:29:11.392Z,29.04
2019-06-20T13:31:51.466Z,29.01
2019-06-20T13:34:05.746Z,29.03
2019-06-20T13:36:32.075Z,28.91
2019-06-20T13:38:58.162Z,28.86
2019-06-20T13:41:24.303Z,28.80
2019-06-20T13:43:50.608Z,28.77
2019-06-20T13:46:16.812Z,28.92
2019-06-20T13:48:43.994Z,29.20
2019-06-20T13:51:11.944Z,29.25
2019-06-20T13:53:39.228Z,29.06
2019-06-20T13:56:06.445Z,28.94
2019-06-20T13:58:32.607Z,28.83
2019-06-20T14:00:58.948Z,28.75
2019-06-20T14:03:25.073Z,28.70
2019-06-20T14:05:51.686Z,28.90
2019-06-20T14:08:18.040Z,28.98
2019-06-20T14:10:46.012Z,29.01
2019-06-20T14:13:19.289Z,29.03
2019-06-20T14:15:42.685Z,29.03
2019-06-20T14:18:08.879Z,28.97
2019-06-20T14:20:35.071Z,28.95
2019-06-20T14:23:01.329Z,28.99
2019-06-20T14:25:30.399Z,29.21
2019-06-20T14:27:57.622Z,29.16
2019-06-20T14:30:24.583Z,29.23
2019-06-20T14:32:51.461Z,29.44
2019-06-20T14:35:18.148Z,29.35
2019-06-20T14:37:46.046Z,29.30
2019-06-20T14:40:13.247Z,29.25
2019-06-20T14:42:39.607Z,29.22
2019-06-20T14:45:08.530Z,29.09
2019-06-20T14:47:35.427Z,29.13
2019-06-20T14:50:01.699Z,29.13
2019-06-20T14:52:27.903Z,28.97
2019-06-20T14:54:54.082Z,28.92
2019-06-20T14:57:20.118Z,28.77
2019-06-20T14:59:46.996Z,28.56
2019-06-20T15:02:14.427Z,28.65
2019-06-20T15:04:40.574Z,28.56
2019-06-20T15:07:06.731Z,28.33
2019-06-20T15:09:32.930Z,28.02
2019-06-20T15:11:58.998Z,27.85
2019-06-20T15:14:25.237Z,27.62
2019-06-20T15:16:51.490Z,27.50
2019-06-20T15:19:17.571Z,27.47
2019-06-20T15:21:45.649Z,27.70
2019-06-20T15:24:12.788Z,28.02
2019-06-20T15:26:38.918Z,28.29
2019-06-20T15:29:06.244Z,28.46
2019-06-20T15:31:32.734Z,28.66
2019-06-20T15:33:58.848Z,28.75
2019-06-20T15:36:25.734Z,28.56
2019-06-20T15:38:52.994Z,28.41
2019-06-20T15:41:19.173Z,28.45
2019-06-20T15:43:45.442Z,28.45
2019-06-20T15:46:11.516Z,28.32
2019-06-20T15:48:37.901Z,28.52
2019-06-20T15:51:03.975Z,28.60
2019-06-20T15:53:30.076Z,28.70
2019-06-20T15:55:56.275Z,28.89
2019-06-20T15:58:22.484Z,28.86
2019-06-20T16:00:48.830Z,28.72
2019-06-20T16:03:15.054Z,28.81
2019-06-20T16:05:41.387Z,28.73
2019-06-20T16:08:07.739Z,28.66
2019-06-20T16:10:33.808Z,28.69
2019-06-20T16:12:59.925Z,28.62
2019-06-20T16:15:26.603Z,28.54
2019-06-20T16:17:52.929Z,28.62
2019-06-20T16:20:21.222Z,28.47
2019-06-20T16:22:47.570Z,28.53
2019-06-20T16:25:15.172Z,28.36
2019-06-20T16:27:43.483Z,28.43
2019-06-20T16:30:10.862Z,28.26
2019-06-20T16:32:37.138Z,27.92
2019-06-20T16:35:07.389Z,27.65
2019-06-20T16:37:34.643Z,27.32
2019-06-20T16:40:00.972Z,27.04
2019-06-20T16:42:31.051Z,26.83
2019-06-20T16:45:04.030Z,26.74
2019-06-20T16:47:30.305Z,26.64
2019-06-20T16:49:56.660Z,26.42
2019-06-20T16:52:22.993Z,26.43
2019-06-20T16:54:49.159Z,26.50
2019-06-20T16:57:15.425Z,26.64
2019-06-20T16:59:42.782Z,26.70
2019-06-20T17:02:10.163Z,26.78
2019-06-20T17:04:36.349Z,26.86
2019-06-20T17:07:02.777Z,26.94
2019-06-20T17:09:29.007Z,27.07
2019-06-20T17:11:55.222Z,27.38
2019-06-20T17:14:21.437Z,27.15
2019-06-20T17:16:47.693Z,26.93
2019-06-20T17:19:14.010Z,26.80
2019-06-20T17:21:40.347Z,26.67
2019-06-20T17:24:08.823Z,26.56
2019-06-20T17:26:34.957Z,26.46
2019-06-20T17:29:01.750Z,26.38
2019-06-20T17:31:28.125Z,26.24
2019-06-20T17:33:57.782Z,26.15
2019-06-20T17:36:22.525Z,26.02
2019-06-20T17:38:48.754Z,25.86
2019-06-20T17:41:14.970Z,25.75
2019-06-20T17:43:41.174Z,24.18
2019-06-20T17:46:07.513Z,25.00
2019-06-20T17:48:33.756Z,24.69
2019-06-20T17:51:00.029Z,24.54
2019-06-20T17:53:26.133Z,24.33
2019-06-20T17:55:52.247Z,24.32
2019-06-20T17:58:18.316Z,24.12
2019-06-20T18:00:44.507Z,24.00
2019-06-20T18:03:10.947Z,23.84
2019-06-20T18:05:37.383Z,23.63
2019-06-20T18:08:14.501Z,23.46
2019-06-20T18:10:34.084Z,23.37
2019-06-20T18:13:00.455Z,23.29
2019-06-20T18:15:26.905Z,23.24
2019-06-20T18:17:53.081Z,23.23
2019-06-20T18:20:19.664Z,22.14
2019-06-20T18:22:46.007Z,23.07
2019-06-20T18:25:12.410Z,23.00
2019-06-20T18:27:38.515Z,23.03
2019-06-20T18:30:07.278Z,23.03
2019-06-20T18:32:33.569Z,23.00
2019-06-20T18:35:02.194Z,22.95
2019-06-20T18:37:31.815Z,22.89
2019-06-20T18:39:55.997Z,22.87
2019-06-20T18:42:22.215Z,22.82
2019-06-20T18:44:49.498Z,22.78
2019-06-20T18:47:15.785Z,22.69
2019-06-20T18:49:41.839Z,21.71
2019-06-20T18:52:09.098Z,22.51
2019-06-20T18:54:35.221Z,22.46
2019-06-20T18:57:01.327Z,22.43
2019-06-20T18:59:27.470Z,22.35
2019-06-20T19:01:53.830Z,22.31
2019-06-20T19:04:20.133Z,22.21
2019-06-20T19:06:46.246Z,22.16
2019-06-20T19:09:12.295Z,22.16
2019-06-20T19:11:38.725Z,22.13
2019-06-20T19:14:05.109Z,21.77
2019-06-20T19:16:31.628Z,21.42
2019-06-20T19:18:57.821Z,21.24
2019-06-20T19:21:23.871Z,21.08
2019-06-20T19:23:50.215Z,20.82
2019-06-20T19:26:16.333Z,20.77
2019-06-20T19:28:55.006Z,20.95
2019-06-20T19:31:20.907Z,21.02
2019-06-20T19:33:51.931Z,21.19
2019-06-20T19:36:16.871Z,21.33
2019-06-20T19:38:44.034Z,21.45
2019-06-20T19:41:10.254Z,21.50
2019-06-20T19:43:36.369Z,21.49
2019-06-20T19:46:02.819Z,21.43
2019-06-20T19:48:29.071Z,21.35
2019-06-20T19:50:55.261Z,21.27
2019-06-20T19:53:21.581Z,21.17
2019-06-20T19:55:47.843Z,21.07
2019-06-20T19:58:15.585Z,20.96
2019-06-20T20:00:42.644Z,20.96
2019-06-20T20:03:10.272Z,20.86
2019-06-20T20:05:37.000Z,20.82
2019-06-20T20:08:04.107Z,20.74
2019-06-20T20:10:47.916Z,20.59
2019-06-20T20:13:15.565Z,20.38
2019-06-20T20:15:44.432Z,20.04
2019-06-20T20:18:12.466Z,19.26
2019-06-20T20:20:38.743Z,18.89
2019-06-20T20:23:05.038Z,18.92
2019-06-20T20:25:31.226Z,19.26
2019-06-20T20:27:57.590Z,19.46
2019-06-20T20:30:24.104Z,19.46
2019-06-20T20:32:50.434Z,19.50
2019-06-20T20:35:16.783Z,19.44
2019-06-20T20:37:42.940Z,19.44
2019-06-20T20:40:09.940Z,19.35
2019-06-20T20:42:37.507Z,19.32
2019-06-20T20:45:05.654Z,19.33
2019-06-20T20:47:31.889Z,19.28
2019-06-20T20:49:58.084Z,19.08
2019-06-20T20:52:24.188Z,18.99
2019-06-20T20:54:50.498Z,18.99
2019-06-20T20:57:16.571Z,19.00
2019-06-20T20:59:42.816Z,18.96
2019-06-20T21:02:09.041Z,19.03
2019-06-20T21:04:35.144Z,18.76
2019-06-20T21:07:01.210Z,18.59
2019-06-20T21:09:27.543Z,18.53
2019-06-20T21:11:53.677Z,18.22
2019-06-20T21:14:19.974Z,18.15
2019-06-20T21:16:46.327Z,18.23
2019-06-20T21:19:12.509Z,18.24
2019-06-20T21:21:38.824Z,18.28
2019-06-20T21:24:04.989Z,18.19
2019-06-20T21:26:31.049Z,17.93
2019-06-20T21:28:57.288Z,17.69
2019-06-20T21:31:23.472Z,17.62
2019-06-20T21:33:49.656Z,17.84
2019-06-20T21:36:16.001Z,17.86
2019-06-20T21:38:42.164Z,17.96
2019-06-20T21:41:08.328Z,17.88
2019-06-20T21:43:34.486Z,17.89
2019-06-20T21:46:00.782Z,17.94
2019-06-20T21:48:26.933Z,17.78
2019-06-20T21:50:53.057Z,17.73
2019-06-20T21:53:19.157Z,17.90
2019-06-20T21:55:45.399Z,17.14
2019-06-20T21:58:11.676Z,17.64
2019-06-20T22:00:41.885Z,17.63
2019-06-20T22:03:10.358Z,17.50
2019-06-20T22:05:37.779Z,17.64
2019-06-20T22:08:04.238Z,17.71
2019-06-20T22:10:30.368Z,17.78
2019-06-20T22:12:56.638Z,17.90
2019-06-20T22:15:22.958Z,18.05
2019-06-20T22:17:49.046Z,18.24
2019-06-20T22:20:15.436Z,18.35
2019-06-20T22:22:41.649Z,18.43
2019-06-20T22:25:08.320Z,18.46
2019-06-20T22:27:34.585Z,18.52
2019-06-20T22:30:03.612Z,18.58
2019-06-20T22:32:29.060Z,18.66
2019-06-20T22:34:56.206Z,18.81
2019-06-20T22:37:22.463Z,18.84
2019-06-20T22:39:49.718Z,18.88
2019-06-20T22:42:15.935Z,18.97
2019-06-20T22:44:44.874Z,18.93
2019-06-20T22:47:11.100Z,18.88
2019-06-20T22:49:37.326Z,18.81
2019-06-20T22:52:03.620Z,18.82
2019-06-20T22:54:29.781Z,18.76
2019-06-20T22:56:55.871Z,18.67
2019-06-20T22:59:21.993Z,18.58
2019-06-20T23:01:48.280Z,18.41
2019-06-20T23:04:14.335Z,18.24
2019-06-20T23:06:55.496Z,18.08
2019-06-20T23:09:08.386Z,17.92
2019-06-20T23:11:34.696Z,17.80
2019-06-20T23:14:00.844Z,17.81
2019-06-20T23:16:28.035Z,17.77
2019-06-20T23:18:55.186Z,17.69
2019-06-20T23:21:21.289Z,17.86
2019-06-20T23:23:47.347Z,17.95
2019-06-20T23:26:13.436Z,17.97
2019-06-20T23:28:41.551Z,17.73
2019-06-20T23:31:07.844Z,17.63
2019-06-20T23:33:33.945Z,17.71
2019-06-20T23:36:00.081Z,17.84
2019-06-20T23:38:26.403Z,17.81
2019-06-20T23:40:52.793Z,17.77
2019-06-20T23:43:19.016Z,17.70
2019-06-20T23:45:45.224Z,17.80
2019-06-20T23:48:11.323Z,17.91
2019-06-20T23:50:37.570Z,18.05
2019-06-20T23:53:03.891Z,18.14
2019-06-20T23:55:30.903Z,18.12
2019-06-20T23:57:57.042Z,18.17
